Terminal Aerodrome Forecast
Issued by NWS Wilmington, OH

Current Version | Previous Version | Graphics & Text | Print | Product List | Glossary On
Versions: 1 2 3 4 5 6 7 8 9 10 11 12 13 14 15 16 17 18 19 20 21 22
000
FTUS41 KILN 200209 AAB
TAFILN
TAF AMD
KILN 200209Z 2002/2024 19005KT 4SM BR SCT250
     FM200600 VRB03KT 3SM BR BKN015
     FM200800 00000KT 1SM BR OVC008
     FM201500 13004KT P6SM SCT015
     FM201800 14006KT P6SM SCT200=

USA.gov is the U.S. government's official web portal to all federal, state and local government web resources and services.